Time;durP1;ratioP1;P1;durP2;ratioP2;P2;SDS_P1;SDS_P2;PMS_P1;PMS_P2;Temp;Humidity;BMP_temperature;BMP_pressure;BME280_temperature;BME280_humidity;BME280_pressure;Samples;Min_cycle;Max_cycle;Signal;HPM_P1;HPM_P2
2021/12/21 00:01:23;;;;;;;1.93;0.90;;;0.90;99.90;;;;;;5077592;28;20478;-60
2021/12/21 00:03:50;;;;;;;2.73;1.30;;;1.00;99.90;;;;;;5076437;28;20494;-59
2021/12/21 00:06:17;;;;;;;4.60;1.10;;;1.00;99.90;;;;;;5074843;28;20530;-60
2021/12/21 00:08:44;;;;;;;3.30;0.80;;;1.00;99.90;;;;;;5074551;28;20759;-59
2021/12/21 00:11:12;;;;;;;5.93;0.87;;;0.90;99.90;;;;;;5074315;28;20569;-59
2021/12/21 00:13:59;;;;;;;1.77;0.90;;;1.00;99.90;;;;;;5075014;28;20497;-60
2021/12/21 00:17:04;;;;;;;2.40;0.90;;;0.90;99.90;;;;;;5073070;28;20774;-59
2021/12/21 00:19:54;;;;;;;4.93;1.07;;;1.00;99.90;;;;;;5073187;28;20889;-60
2021/12/21 00:25:03;;;;;;;3.20;0.83;;;1.10;99.90;;;;;;5070641;28;20877;-60
2021/12/21 00:27:29;;;;;;;2.57;0.90;;;1.00;99.90;;;;;;5071149;28;20728;-59
2021/12/21 00:30:00;;;;;;;3.60;1.20;;;0.80;99.90;;;;;;5072811;28;20870;-59
2021/12/21 00:32:28;;;;;;;3.10;0.90;;;0.80;99.90;;;;;;5073655;28;20545;-59
2021/12/21 00:34:55;;;;;;;1.57;1.03;;;0.70;99.90;;;;;;5074432;28;20753;-60
2021/12/21 00:37:23;;;;;;;8.50;1.30;;;0.70;99.90;;;;;;5075059;28;20433;-59
2021/12/21 00:39:50;;;;;;;4.57;1.00;;;0.70;99.90;;;;;;5076008;28;20537;-59
2021/12/21 00:42:17;;;;;;;5.17;1.00;;;0.70;99.90;;;;;;5076414;28;20525;-59
2021/12/21 00:44:44;;;;;;;2.37;1.17;;;0.60;99.90;;;;;;5076816;28;20469;-59
2021/12/21 00:47:10;;;;;;;4.30;1.43;;;0.50;99.90;;;;;;5076256;28;20534;-59
2021/12/21 00:49:44;;;;;;;4.47;1.13;;;0.50;99.90;;;;;;5076493;28;20478;-59
2021/12/21 00:52:11;;;;;;;4.33;1.30;;;0.60;99.90;;;;;;5076522;28;20451;-58
2021/12/21 00:54:39;;;;;;;3.93;1.30;;;0.60;99.90;;;;;;5076901;28;20537;-59
2021/12/21 00:57:06;;;;;;;2.40;1.20;;;0.50;99.90;;;;;;5076573;28;20565;-59
2021/12/21 00:59:33;;;;;;;2.80;0.90;;;0.50;99.90;;;;;;5076635;28;20474;-60
2021/12/21 01:02:01;;;;;;;2.47;1.10;;;0.50;99.90;;;;;;5076685;28;20454;-59
2021/12/21 01:04:33;;;;;;;3.50;1.33;;;0.50;99.90;;;;;;5076648;28;20456;-60
2021/12/21 01:07:07;;;;;;;2.30;1.07;;;0.50;99.90;;;;;;5076166;28;20450;-59
2021/12/21 01:10:02;;;;;;;3.27;1.30;;;0.40;99.90;;;;;;5075136;28;20545;-59
2021/12/21 01:12:43;;;;;;;2.53;1.17;;;0.40;99.90;;;;;;5074439;28;20465;-59
2021/12/21 01:15:21;;;;;;;2.17;1.03;;;0.40;99.90;;;;;;5073019;28;20450;-59
2021/12/21 01:17:54;;;;;;;1.90;1.00;;;0.30;99.90;;;;;;5072617;28;20900;-60
2021/12/21 01:20:30;;;;;;;1.93;0.87;;;0.30;99.90;;;;;;5072657;28;20446;-59
2021/12/21 01:25:53;;;;;;;2.37;1.00;;;0.30;99.90;;;;;;5067877;28;20430;-59
2021/12/21 01:28:28;;;;;;;4.23;1.20;;;0.40;99.90;;;;;;5075957;28;20507;-59
2021/12/21 01:31:02;;;;;;;2.50;0.90;;;0.40;99.90;;;;;;5075253;28;20903;-59
2021/12/21 01:33:46;;;;;;;2.97;1.03;;;0.50;99.90;;;;;;5074512;28;20548;-59
2021/12/21 01:36:24;;;;;;;1.80;0.90;;;0.50;99.90;;;;;;5074487;28;20503;-60
2021/12/21 01:38:59;;;;;;;4.83;1.10;;;0.50;99.90;;;;;;5074627;28;20458;-59
2021/12/21 01:41:32;;;;;;;2.70;0.80;;;0.60;99.90;;;;;;5075116;28;20441;-59
2021/12/21 01:44:11;;;;;;;12.00;1.00;;;0.60;99.90;;;;;;5075403;28;20470;-59
2021/12/21 01:49:41;;;;;;;1.60;0.80;;;0.40;99.90;;;;;;5075723;28;20479;-59
2021/12/21 01:52:15;;;;;;;1.53;0.80;;;0.20;99.90;;;;;;5075683;28;20755;-59
2021/12/21 01:54:46;;;;;;;2.07;0.70;;;0.10;99.90;;;;;;5075222;28;20583;-59
2021/12/21 01:57:13;;;;;;;2.40;1.17;;;0.10;99.90;;;;;;5075198;28;20557;-59
2021/12/21 01:59:42;;;;;;;2.20;0.80;;;-0.10;99.90;;;;;;5072813;28;20470;-59
2021/12/21 02:02:13;;;;;;;2.20;0.77;;;0.00;99.90;;;;;;5073956;28;20572;-59
2021/12/21 02:04:41;;;;;;;1.40;0.83;;;-0.20;99.90;;;;;;5074658;28;20529;-59
2021/12/21 02:07:12;;;;;;;1.10;0.70;;;-0.20;99.90;;;;;;5074644;28;20805;-59
2021/12/21 02:09:39;;;;;;;5.30;0.80;;;-0.30;99.90;;;;;;5075706;28;20439;-59
2021/12/21 02:12:11;;;;;;;4.30;1.00;;;-0.30;99.90;;;;;;5075340;28;20794;-59
2021/12/21 02:14:40;;;;;;;1.47;0.77;;;-0.40;99.90;;;;;;5075560;28;20536;-59
2021/12/21 02:17:32;;;;;;;1.93;0.83;;;-0.30;99.90;;;;;;5075640;28;20512;-58
2021/12/21 02:20:10;;;;;;;2.07;1.63;;;-0.30;99.90;;;;;;5075638;28;20450;-60
2021/12/21 02:22:43;;;;;;;1.60;0.70;;;-0.40;99.90;;;;;;5074836;28;20797;-59
2021/12/21 02:25:33;;;;;;;1.57;0.80;;;-0.40;99.90;;;;;;5073824;28;20451;-59
2021/12/21 02:28:22;;;;;;;4.40;0.80;;;-0.50;99.90;;;;;;5072095;28;20581;-59
2021/12/21 02:30:53;;;;;;;5.03;0.60;;;-0.50;99.90;;;;;;5074305;28;20485;-59
2021/12/21 02:33:21;;;;;;;1.63;0.70;;;-0.50;99.90;;;;;;5074613;28;20561;-59
2021/12/21 02:35:50;;;;;;;1.30;0.70;;;-0.50;99.90;;;;;;5073320;28;20806;-59
2021/12/21 02:38:17;;;;;;;2.57;0.97;;;-0.50;99.90;;;;;;5073087;28;20541;-59
2021/12/21 02:40:45;;;;;;;3.50;0.90;;;-0.40;99.90;;;;;;5072993;28;20533;-60
2021/12/21 02:43:13;;;;;;;10.33;1.13;;;-0.40;99.90;;;;;;5074326;28;20549;-59
2021/12/21 02:45:41;;;;;;;3.50;0.90;;;-0.50;99.90;;;;;;5074610;28;20490;-59
2021/12/21 02:48:09;;;;;;;2.03;0.70;;;-0.50;99.90;;;;;;5074749;28;20561;-58
2021/12/21 02:50:38;;;;;;;7.70;0.80;;;-0.40;99.90;;;;;;5074829;28;20871;-58
2021/12/21 02:53:07;;;;;;;1.33;0.80;;;-0.40;99.90;;;;;;5075052;28;20583;-59
2021/12/21 02:55:34;;;;;;;1.70;0.90;;;-0.40;99.90;;;;;;5074301;28;20973;-59
2021/12/21 02:58:01;;;;;;;2.90;0.73;;;-0.40;99.90;;;;;;5074818;28;20561;-59
2021/12/21 03:00:29;;;;;;;4.00;0.93;;;-0.30;99.90;;;;;;5074969;28;20548;-59
2021/12/21 03:02:57;;;;;;;2.10;0.70;;;-0.40;99.90;;;;;;5074715;28;20458;-59
2021/12/21 03:05:24;;;;;;;3.30;0.90;;;-0.30;99.90;;;;;;5074924;28;20474;-59
2021/12/21 03:08:09;;;;;;;3.60;0.80;;;-0.30;99.90;;;;;;5074963;28;20803;-59
2021/12/21 03:10:45;;;;;;;0.90;0.70;;;-0.40;99.90;;;;;;5075945;28;20941;-59
2021/12/21 03:15:57;;;;;;;2.53;1.17;;;-0.40;99.90;;;;;;5078335;28;20429;-59
2021/12/21 03:18:23;;;;;;;3.43;0.83;;;-0.40;99.90;;;;;;5078696;28;20552;-59
2021/12/21 03:20:50;;;;;;;1.13;0.70;;;-0.30;99.90;;;;;;5078772;28;20525;-59
2021/12/21 03:23:17;;;;;;;6.33;1.10;;;-0.40;99.90;;;;;;5078772;28;20545;-59
2021/12/21 03:25:46;;;;;;;2.27;0.80;;;-0.40;99.90;;;;;;5077099;28;20534;-59
2021/12/21 03:28:12;;;;;;;1.80;0.77;;;-0.40;99.90;;;;;;5078457;28;20553;-59
2021/12/21 03:30:39;;;;;;;1.67;0.80;;;-0.40;99.90;;;;;;5078172;28;20493;-59
2021/12/21 03:33:06;;;;;;;1.30;0.67;;;-0.50;99.90;;;;;;5078041;28;20544;-60
2021/12/21 03:35:33;;;;;;;1.07;0.83;;;-0.60;99.90;;;;;;5078737;28;20467;-59
2021/12/21 03:38:00;;;;;;;1.80;0.80;;;-0.60;99.90;;;;;;5077913;28;20501;-59
2021/12/21 03:40:31;;;;;;;1.10;0.60;;;-0.60;99.90;;;;;;5077490;28;20533;-59
2021/12/21 03:43:00;;;;;;;2.23;0.57;;;-0.60;99.90;;;;;;5078154;28;20613;-59
2021/12/21 03:45:30;;;;;;;2.50;0.73;;;-0.60;99.90;;;;;;5076843;28;20454;-59
2021/12/21 03:47:57;;;;;;;1.00;0.60;;;-0.50;99.90;;;;;;5076513;28;21039;-58
2021/12/21 03:50:24;;;;;;;0.97;0.70;;;-0.60;99.90;;;;;;5076506;28;20818;-59
2021/12/21 03:52:51;;;;;;;1.30;0.70;;;-0.60;99.90;;;;;;5077255;28;20755;-59
2021/12/21 03:55:18;;;;;;;3.00;0.80;;;-0.60;99.90;;;;;;5077437;28;20541;-59
2021/12/21 03:57:45;;;;;;;1.50;0.70;;;-0.70;99.90;;;;;;5074898;28;20573;-59
2021/12/21 04:00:18;;;;;;;5.80;0.90;;;-0.70;99.90;;;;;;5074727;28;20478;-59
2021/12/21 04:02:45;;;;;;;1.43;0.70;;;-0.80;99.90;;;;;;5074855;28;20575;-58
2021/12/21 04:05:12;;;;;;;2.40;0.67;;;-0.80;99.90;;;;;;5075313;28;20496;-59
2021/12/21 04:07:39;;;;;;;2.47;0.63;;;-0.70;99.90;;;;;;5075102;28;20505;-59
2021/12/21 04:10:07;;;;;;;1.40;0.80;;;-0.70;99.90;;;;;;5075410;28;20450;-59
2021/12/21 04:12:35;;;;;;;1.43;0.70;;;-0.70;99.90;;;;;;5075934;28;20522;-59
2021/12/21 04:15:03;;;;;;;2.70;0.80;;;-0.70;99.90;;;;;;5077817;28;20450;-59
2021/12/21 04:17:33;;;;;;;2.53;0.57;;;-0.70;99.90;;;;;;5076677;28;20556;-59
2021/12/21 04:20:01;;;;;;;2.40;0.70;;;-0.90;99.90;;;;;;5077458;28;20811;-59
2021/12/21 04:22:29;;;;;;;0.93;0.50;;;-1.00;99.90;;;;;;5076920;28;20454;-59
2021/12/21 04:24:56;;;;;;;1.47;0.70;;;-1.10;99.90;;;;;;5077574;28;20441;-59
2021/12/21 04:27:22;;;;;;;2.37;0.67;;;-1.00;99.90;;;;;;5075899;28;20544;-59
2021/12/21 04:29:49;;;;;;;1.57;0.60;;;-1.10;99.90;;;;;;5077519;28;20454;-58
2021/12/21 04:32:17;;;;;;;4.03;1.00;;;-1.10;99.90;;;;;;5077017;28;20518;-59
2021/12/21 04:34:45;;;;;;;1.77;0.80;;;-1.00;99.90;;;;;;5077091;28;20541;-59
2021/12/21 04:37:14;;;;;;;3.23;0.80;;;-1.00;99.90;;;;;;5076791;28;20529;-58
2021/12/21 04:39:47;;;;;;;1.30;0.60;;;-0.90;99.90;;;;;;5077176;28;20911;-59
2021/12/21 04:42:14;;;;;;;4.70;0.70;;;-0.80;99.90;;;;;;5076922;28;20443;-59
2021/12/21 04:44:41;;;;;;;0.90;0.50;;;-0.70;99.90;;;;;;5076618;28;20545;-59
2021/12/21 04:47:08;;;;;;;1.07;0.60;;;-0.60;99.90;;;;;;5075578;28;20950;-58
2021/12/21 04:49:35;;;;;;;1.30;0.60;;;-0.70;99.90;;;;;;5075685;28;20934;-59
2021/12/21 04:52:04;;;;;;;1.57;0.50;;;-0.60;99.90;;;;;;5074892;28;20577;-58
2021/12/21 04:54:31;;;;;;;2.13;0.70;;;-0.80;99.90;;;;;;5075065;28;20533;-59
2021/12/21 04:56:58;;;;;;;1.27;0.70;;;-0.80;99.90;;;;;;5076170;28;20565;-59
2021/12/21 04:59:24;;;;;;;1.57;0.60;;;-0.90;99.90;;;;;;5076623;28;20544;-59
2021/12/21 05:01:52;;;;;;;3.87;1.40;;;-0.90;99.90;;;;;;5077084;28;20525;-58
2021/12/21 05:04:19;;;;;;;1.93;0.60;;;-0.90;99.90;;;;;;5076605;28;20512;-59
2021/12/21 05:06:46;;;;;;;6.40;0.90;;;-0.90;99.90;;;;;;5076843;28;20466;-59
2021/12/21 05:09:24;;;;;;;3.40;0.80;;;-0.90;99.90;;;;;;5076134;28;20561;-58
2021/12/21 05:11:51;;;;;;;3.67;0.60;;;-0.90;99.90;;;;;;5076737;28;20914;-59
2021/12/21 05:14:18;;;;;;;2.30;0.70;;;-1.00;99.90;;;;;;5075198;28;20947;-59
2021/12/21 05:16:45;;;;;;;3.33;0.63;;;-0.90;99.90;;;;;;5075155;28;20549;-59
2021/12/21 05:19:12;;;;;;;1.43;0.70;;;-0.80;99.90;;;;;;5075195;28;20560;-59
2021/12/21 05:21:39;;;;;;;0.93;0.50;;;-0.70;99.90;;;;;;5073608;28;20824;-53
2021/12/21 05:24:06;;;;;;;1.00;0.57;;;-0.60;99.90;;;;;;5072291;28;20899;-58
2021/12/21 05:26:34;;;;;;;1.98;0.50;;;-0.50;99.90;;;;;;5071043;28;20537;-59
2021/12/21 05:29:01;;;;;;;6.50;0.70;;;-0.60;99.90;;;;;;5072927;28;20302;-59
2021/12/21 05:31:28;;;;;;;1.90;0.60;;;-0.70;99.90;;;;;;5072932;28;20618;-58
2021/12/21 05:33:55;;;;;;;1.07;0.50;;;-0.80;99.90;;;;;;5073168;28;20537;-59
2021/12/21 05:36:22;;;;;;;3.50;0.60;;;-0.80;99.90;;;;;;5072983;28;20537;-59
2021/12/21 05:38:52;;;;;;;1.80;0.70;;;-0.90;99.90;;;;;;5073101;28;20548;-59
2021/12/21 05:41:26;;;;;;;1.00;0.60;;;-0.90;99.90;;;;;;5073058;28;21052;-59
2021/12/21 05:43:55;;;;;;;0.90;0.50;;;-0.90;99.90;;;;;;5072352;28;20725;-59
2021/12/21 05:46:23;;;;;;;3.33;0.70;;;-0.80;99.90;;;;;;5073519;28;20943;-58
2021/12/21 05:48:51;;;;;;;1.57;0.60;;;-0.80;99.90;;;;;;5075786;28;20533;-59
2021/12/21 05:51:20;;;;;;;1.40;0.77;;;-0.80;99.90;;;;;;5075611;28;20482;-59
2021/12/21 05:53:47;;;;;;;1.20;0.80;;;-0.80;99.90;;;;;;5075273;28;20458;-60
2021/12/21 05:56:14;;;;;;;4.13;1.20;;;-0.90;99.90;;;;;;5075370;28;20470;-59
2021/12/21 05:58:42;;;;;;;1.27;0.60;;;-0.80;99.90;;;;;;5075015;28;20549;-59
2021/12/21 06:01:10;;;;;;;2.60;0.80;;;-0.70;99.90;;;;;;5073882;28;20477;-60
2021/12/21 06:03:37;;;;;;;1.20;0.60;;;-0.80;99.90;;;;;;5073909;28;20541;-59
2021/12/21 06:06:10;;;;;;;0.70;0.50;;;-0.40;99.90;;;;;;5082489;28;20520;-59
2021/12/21 06:08:37;;;;;;;1.70;0.77;;;-0.10;99.90;;;;;;5095914;28;20787;-59
2021/12/21 06:11:06;;;;;;;2.93;0.80;;;0.00;99.90;;;;;;5095613;28;20483;-59
2021/12/21 06:22:44;;;;;;;0.90;0.60;;;-0.10;99.90;;;;;;5095491;28;20414;-60
2021/12/21 06:27:45;;;;;;;3.57;1.43;;;0.40;99.90;;;;;;5045452;28;20737;-59
2021/12/21 06:30:13;;;;;;;11.17;1.27;;;0.50;99.90;;;;;;5095534;28;20445;-59
2021/12/21 06:32:42;;;;;;;2.23;1.03;;;0.50;99.90;;;;;;5095058;28;20580;-60
2021/12/21 06:35:10;;;;;;;1.07;0.60;;;0.50;99.90;;;;;;5095327;28;20828;-59
2021/12/21 06:37:37;;;;;;;1.57;0.83;;;0.90;99.90;;;;;;5094974;28;20552;-59
2021/12/21 06:40:06;;;;;;;1.00;0.60;;;1.70;99.90;;;;;;5094062;28;20531;-60
2021/12/21 06:42:34;;;;;;;3.40;0.67;;;1.80;99.90;;;;;;5094341;28;20854;-59
2021/12/21 06:45:02;;;;;;;3.30;0.70;;;1.80;99.90;;;;;;5095134;28;20431;-59
2021/12/21 06:53:01;;;;;;;1.97;0.60;;;2.30;99.90;;;;;;5097667;28;20465;-59
2021/12/21 06:55:28;;;;;;;1.50;0.57;;;2.20;99.90;;;;;;5097586;28;20473;-59
2021/12/21 06:57:55;;;;;;;0.93;0.60;;;2.40;99.90;;;;;;5094899;28;20962;-60
2021/12/21 07:00:22;;;;;;;1.87;0.60;;;2.50;99.90;;;;;;5097139;28;20431;-60
2021/12/21 07:02:50;;;;;;;1.30;0.80;;;2.90;99.90;;;;;;5095129;28;20462;-60
2021/12/21 07:05:18;;;;;;;1.10;0.70;;;2.70;99.90;;;;;;5096217;28;20896;-61
2021/12/21 07:07:46;;;;;;;3.03;0.60;;;2.50;99.90;;;;;;5096693;28;20463;-61
2021/12/21 07:10:21;;;;;;;1.40;0.50;;;2.40;99.90;;;;;;5096734;28;20479;-61
2021/12/21 07:18:29;;;;;;;2.27;1.10;;;2.60;99.90;;;;;;5038002;28;20431;-60
2021/12/21 07:21:00;;;;;;;1.90;0.70;;;2.90;99.90;;;;;;5096744;28;21051;-61
2021/12/21 07:23:27;;;;;;;1.23;0.80;;;3.00;99.90;;;;;;5096333;28;20809;-61
2021/12/21 07:25:54;;;;;;;3.63;0.90;;;3.00;99.90;;;;;;5095948;28;20529;-60
2021/12/21 07:28:21;;;;;;;4.03;1.00;;;3.10;99.90;;;;;;5094516;28;20523;-62
2021/12/21 07:30:49;;;;;;;1.50;0.80;;;3.00;99.90;;;;;;5096605;28;20708;-62
2021/12/21 07:33:16;;;;;;;1.33;0.70;;;2.60;99.90;;;;;;5096431;28;20485;-58
2021/12/21 07:35:43;;;;;;;2.10;1.00;;;2.80;99.90;;;;;;5096120;28;20822;-59
2021/12/21 07:38:12;;;;;;;1.23;0.60;;;2.60;99.90;;;;;;5093918;28;20518;-59
2021/12/21 07:40:39;;;;;;;3.20;1.20;;;2.00;99.90;;;;;;5091621;28;20775;-59
2021/12/21 07:43:08;;;;;;;2.17;0.97;;;2.00;99.90;;;;;;5091277;28;20231;-59
2021/12/21 07:45:35;;;;;;;1.57;1.00;;;2.40;99.90;;;;;;5090368;28;20449;-59
2021/12/21 07:48:02;;;;;;;0.90;0.80;;;2.60;99.90;;;;;;5090429;28;20944;-59
2021/12/21 07:50:29;;;;;;;3.97;1.00;;;2.80;99.90;;;;;;5091812;28;20527;-59
2021/12/21 07:53:00;;;;;;;2.20;0.77;;;3.10;99.90;;;;;;5093354;28;20304;-59
2021/12/21 07:55:29;;;;;;;2.03;0.70;;;3.10;99.90;;;;;;5094481;28;20522;-59
2021/12/21 07:57:56;;;;;;;2.80;0.90;;;3.10;99.90;;;;;;5092207;28;20574;-58
2021/12/21 08:00:24;;;;;;;3.63;0.97;;;3.30;99.90;;;;;;5093765;28;20791;-58
2021/12/21 08:02:53;;;;;;;4.53;1.20;;;3.20;99.90;;;;;;5092897;28;20543;-59
2021/12/21 08:05:23;;;;;;;3.00;0.93;;;3.10;99.90;;;;;;5094495;28;20452;-58
2021/12/21 08:07:55;;;;;;;2.33;1.00;;;3.10;99.90;;;;;;5090637;28;20530;-59
2021/12/21 08:10:28;;;;;;;1.73;0.80;;;2.90;99.90;;;;;;5092526;28;20877;-59
2021/12/21 08:12:58;;;;;;;2.00;0.80;;;2.50;99.90;;;;;;5093775;28;20473;-58
2021/12/21 08:15:25;;;;;;;1.70;0.60;;;2.20;99.90;;;;;;5094519;28;20536;-57
2021/12/21 08:17:57;;;;;;;2.10;0.90;;;1.60;99.90;;;;;;5091456;28;20449;-57
2021/12/21 08:20:27;;;;;;;2.23;1.10;;;1.50;99.90;;;;;;5090369;28;20922;-54
2021/12/21 08:22:57;;;;;;;2.60;0.50;;;1.90;99.90;;;;;;5091472;28;20423;-56
2021/12/21 08:25:28;;;;;;;2.00;0.80;;;1.90;99.90;;;;;;5091634;28;20449;-55
2021/12/21 08:28:02;;;;;;;2.10;0.80;;;2.10;99.90;;;;;;5091558;28;20440;-54
2021/12/21 08:30:30;;;;;;;1.27;0.80;;;2.40;99.90;;;;;;5093975;28;20458;-57
2021/12/21 08:33:03;;;;;;;1.97;0.80;;;2.40;99.90;;;;;;5094116;28;20440;-57
2021/12/21 08:35:31;;;;;;;1.50;0.70;;;2.70;99.90;;;;;;5094952;28;20507;-57
2021/12/21 08:38:04;;;;;;;3.13;0.80;;;2.90;99.90;;;;;;5091781;28;20469;-57
2021/12/21 08:40:38;;;;;;;1.90;0.70;;;3.10;99.90;;;;;;5092632;28;20453;-56
2021/12/21 08:43:09;;;;;;;5.70;1.10;;;3.40;99.90;;;;;;5093913;28;20441;-57
2021/12/21 08:45:37;;;;;;;1.50;0.80;;;3.60;99.90;;;;;;5092646;28;20513;-57
2021/12/21 08:48:06;;;;;;;1.57;0.80;;;3.60;99.90;;;;;;5091959;28;20528;-57
2021/12/21 08:50:34;;;;;;;0.90;0.70;;;3.30;99.90;;;;;;5094444;28;20431;-56
2021/12/21 08:53:02;;;;;;;2.60;0.60;;;3.20;99.90;;;;;;5094959;28;20546;-54
2021/12/21 08:55:29;;;;;;;2.10;0.83;;;3.20;99.90;;;;;;5094522;28;20526;-55
2021/12/21 08:57:56;;;;;;;1.57;0.70;;;2.90;99.90;;;;;;5092642;28;20564;-56
2021/12/21 09:00:25;;;;;;;1.20;0.80;;;2.60;99.90;;;;;;5093258;28;20833;-55
2021/12/21 09:02:52;;;;;;;5.67;0.90;;;2.20;99.90;;;;;;5092972;28;20433;-55
2021/12/21 09:05:26;;;;;;;1.63;0.80;;;1.80;99.90;;;;;;5093236;28;20520;-55
2021/12/21 09:07:54;;;;;;;1.87;0.90;;;1.50;99.90;;;;;;5090745;28;20446;-56
2021/12/21 09:10:23;;;;;;;1.47;0.70;;;1.40;99.90;;;;;;5091756;28;20519;-56
2021/12/21 09:12:50;;;;;;;1.03;0.70;;;1.20;99.90;;;;;;5092698;28;20962;-55
2021/12/21 09:15:21;;;;;;;2.03;0.70;;;1.40;99.90;;;;;;5092446;28;20540;-57
2021/12/21 09:17:52;;;;;;;1.67;0.93;;;1.80;99.90;;;;;;5092705;28;20595;-57
2021/12/21 09:20:21;;;;;;;4.20;1.43;;;2.00;99.90;;;;;;5090848;28;20561;-58
2021/12/21 09:22:54;;;;;;;3.30;1.00;;;1.70;99.90;;;;;;5090786;28;20929;-53
2021/12/21 09:25:25;;;;;;;2.17;0.73;;;1.30;99.90;;;;;;5091676;28;20618;-59
2021/12/21 09:27:53;;;;;;;5.10;0.70;;;1.70;99.90;;;;;;5092323;28;20514;-58
2021/12/21 09:30:21;;;;;;;1.40;0.80;;;2.30;99.90;;;;;;5092441;28;20492;-57
2021/12/21 09:32:51;;;;;;;3.70;0.73;;;2.90;99.90;;;;;;5092958;28;20527;-59
2021/12/21 09:35:18;;;;;;;4.50;0.87;;;2.80;99.90;;;;;;5092450;28;20450;-59
2021/12/21 09:37:49;;;;;;;4.10;0.80;;;3.00;99.90;;;;;;5091784;28;20516;-58
2021/12/21 09:40:19;;;;;;;1.93;0.90;;;3.00;99.90;;;;;;5093345;28;20931;-56
2021/12/21 09:42:46;;;;;;;5.37;1.00;;;3.30;99.90;;;;;;5093913;28;20450;-58
2021/12/21 09:45:15;;;;;;;3.10;0.80;;;3.40;99.90;;;;;;5090957;28;20550;-58
2021/12/21 09:47:43;;;;;;;4.60;1.47;;;3.40;99.90;;;;;;5090996;28;20506;-57
2021/12/21 09:50:14;;;;;;;3.30;0.90;;;3.90;99.90;;;;;;5091006;28;20892;-58
2021/12/21 09:52:44;;;;;;;2.60;1.10;;;3.90;99.90;;;;;;5092771;28;20480;-58
2021/12/21 09:55:15;;;;;;;2.00;0.80;;;3.90;99.90;;;;;;5077379;28;20527;-58
2021/12/21 09:57:43;;;;;;;2.33;0.80;;;3.80;99.90;;;;;;5088667;28;20467;-58
2021/12/21 10:00:17;;;;;;;2.40;1.33;;;3.70;99.90;;;;;;5092937;28;20764;-59
2021/12/21 10:02:44;;;;;;;3.20;0.90;;;3.80;99.90;;;;;;5091788;28;20452;-58
2021/12/21 10:05:17;;;;;;;3.20;1.03;;;3.70;99.90;;;;;;5091974;28;20840;-58
2021/12/21 10:07:44;;;;;;;1.97;1.10;;;3.40;99.90;;;;;;5092854;28;20503;-60
2021/12/21 10:10:13;;;;;;;3.37;1.10;;;3.30;99.90;;;;;;5091420;28;20500;-60
2021/12/21 10:12:43;;;;;;;5.23;1.10;;;3.40;99.90;;;;;;5093008;28;20484;-60
2021/12/21 10:15:18;;;;;;;3.33;1.00;;;3.60;99.90;;;;;;5092750;28;20543;-60
2021/12/21 10:17:49;;;;;;;3.40;1.00;;;3.70;99.90;;;;;;5092504;28;20961;-60
2021/12/21 10:20:32;;;;;;;2.47;1.00;;;3.90;99.90;;;;;;5092143;28;20460;-60
2021/12/21 10:23:01;;;;;;;1.23;0.83;;;4.00;99.90;;;;;;5094656;28;20729;-60
2021/12/21 10:25:28;;;;;;;1.30;0.83;;;4.10;99.90;;;;;;5095157;28;20503;-60
2021/12/21 10:28:03;;;;;;;1.60;0.90;;;4.10;99.90;;;;;;5091685;28;20536;-60
2021/12/21 10:30:33;;;;;;;1.50;0.83;;;4.30;99.90;;;;;;5082581;28;20457;-64
2021/12/21 10:33:01;;;;;;;2.83;1.17;;;3.90;99.90;;;;;;5094988;28;20566;-60
2021/12/21 10:35:34;;;;;;;2.80;1.30;;;3.70;99.90;;;;;;5095958;28;20478;-60
2021/12/21 10:38:03;;;;;;;1.23;0.80;;;3.10;99.90;;;;;;5090208;28;20461;-59
2021/12/21 10:40:40;;;;;;;1.80;1.13;;;2.90;99.90;;;;;;5092020;28;20900;-60
2021/12/21 10:43:10;;;;;;;1.60;0.90;;;2.70;99.90;;;;;;5091457;28;20880;-60
2021/12/21 10:45:40;;;;;;;4.47;1.30;;;3.00;99.90;;;;;;5095568;28;20985;-59
2021/12/21 10:48:15;;;;;;;6.47;1.50;;;3.20;99.90;;;;;;5094199;28;20813;-59
2021/12/21 10:50:45;;;;;;;3.43;1.20;;;3.70;99.90;;;;;;5094961;28;20438;-60
2021/12/21 10:53:19;;;;;;;2.07;1.00;;;3.40;99.90;;;;;;5095562;28;20512;-60
2021/12/21 10:55:46;;;;;;;1.70;1.20;;;3.50;99.90;;;;;;5095196;28;20518;-60
2021/12/21 10:58:16;;;;;;;1.20;0.87;;;3.60;99.90;;;;;;5094874;28;20563;-60
2021/12/21 11:00:48;;;;;;;1.23;0.90;;;3.80;99.90;;;;;;5095567;28;20461;-60
2021/12/21 11:03:40;;;;;;;3.20;1.00;;;3.80;99.90;;;;;;5095572;28;20413;-60
2021/12/21 11:06:24;;;;;;;3.10;1.00;;;3.60;99.90;;;;;;5095745;28;20431;-60
2021/12/21 11:08:54;;;;;;;1.50;0.93;;;3.30;99.90;;;;;;5096369;28;20734;-61
2021/12/21 11:11:29;;;;;;;1.87;1.00;;;3.50;99.90;;;;;;5094649;28;20435;-60
2021/12/21 11:14:01;;;;;;;1.83;1.00;;;3.80;99.90;;;;;;5093915;28;20459;-60
2021/12/21 11:16:39;;;;;;;3.00;1.00;;;4.10;99.90;;;;;;5093501;28;20495;-60
2021/12/21 11:19:12;;;;;;;1.40;0.90;;;3.90;99.90;;;;;;5094556;28;20515;-60
2021/12/21 11:21:42;;;;;;;3.17;1.10;;;3.80;99.90;;;;;;5093450;28;20518;-61
2021/12/21 11:24:14;;;;;;;2.87;1.00;;;3.80;99.90;;;;;;5093957;28;20956;-61
2021/12/21 11:26:44;;;;;;;1.10;0.90;;;4.10;99.90;;;;;;5092960;28;20449;-60
2021/12/21 11:29:15;;;;;;;3.07;0.90;;;4.10;99.90;;;;;;5075333;28;20421;-61
2021/12/21 11:31:44;;;;;;;1.93;0.80;;;4.10;99.90;;;;;;5094538;28;20551;-60
2021/12/21 11:34:33;;;;;;;1.83;0.80;;;4.10;99.90;;;;;;5088997;28;20788;-60
2021/12/21 11:39:49;;;;;;;1.60;0.90;;;4.40;99.90;;;;;;5094666;28;20606;-60
2021/12/21 11:42:28;;;;;;;0.90;0.60;;;4.30;99.90;;;;;;5093511;28;20439;-60
2021/12/21 11:45:02;;;;;;;2.00;0.80;;;4.20;99.90;;;;;;5094703;28;20459;-60
2021/12/21 11:47:38;;;;;;;1.13;0.80;;;4.30;99.90;;;;;;5092677;28;20514;-61
2021/12/21 11:50:10;;;;;;;2.83;0.83;;;4.50;99.90;;;;;;5092875;28;20461;-60
2021/12/21 11:52:55;;;;;;;1.50;0.80;;;4.60;99.90;;;;;;5094543;28;20449;-59
2021/12/21 11:55:32;;;;;;;2.17;0.67;;;4.80;99.90;;;;;;5093713;28;21017;-59
2021/12/21 11:58:15;;;;;;;3.23;0.73;;;5.00;99.90;;;;;;5093326;28;20526;-58
2021/12/21 12:00:51;;;;;;;1.37;0.80;;;5.00;99.90;;;;;;5075061;28;20567;-60
2021/12/21 12:03:23;;;;;;;3.53;0.70;;;4.80;99.90;;;;;;5089465;28;20494;-59
2021/12/21 12:05:57;;;;;;;1.67;0.70;;;4.90;99.90;;;;;;5092183;28;20515;-59
2021/12/21 12:08:44;;;;;;;1.60;0.80;;;4.70;99.90;;;;;;5091997;28;20910;-59
2021/12/21 12:11:23;;;;;;;1.40;0.80;;;4.50;99.90;;;;;;5089667;28;20764;-60
2021/12/21 12:13:51;;;;;;;1.20;0.80;;;4.30;99.90;;;;;;5091481;28;20495;-60
2021/12/21 12:16:22;;;;;;;0.80;0.73;;;4.60;99.90;;;;;;5093102;28;20450;-60
2021/12/21 12:18:52;;;;;;;1.10;0.63;;;4.70;99.90;;;;;;5089350;28;20961;-60
2021/12/21 12:21:23;;;;;;;2.53;0.80;;;4.50;99.90;;;;;;5093553;28;20889;-60
2021/12/21 12:24:21;;;;;;;2.20;0.70;;;4.40;99.90;;;;;;5094095;28;20537;-60
2021/12/21 12:27:08;;;;;;;1.10;0.67;;;4.40;99.90;;;;;;5093292;28;20498;-60
2021/12/21 12:29:52;;;;;;;1.50;0.80;;;4.20;99.90;;;;;;5094951;28;20457;-60
2021/12/21 12:32:34;;;;;;;4.13;0.80;;;3.80;99.90;;;;;;5094085;28;20807;-60
2021/12/21 12:35:10;;;;;;;0.90;0.63;;;3.70;99.90;;;;;;5093669;28;20517;-59
2021/12/21 12:38:01;;;;;;;1.53;1.00;;;3.60;99.90;;;;;;5093534;28;20756;-59
2021/12/21 12:40:32;;;;;;;1.10;0.67;;;3.90;99.90;;;;;;5093909;28;20884;-59
2021/12/21 12:43:08;;;;;;;1.57;0.87;;;4.10;99.90;;;;;;5093074;28;20775;-60
2021/12/21 12:45:39;;;;;;;2.17;0.67;;;4.10;99.90;;;;;;5094450;28;20530;-60
2021/12/21 12:48:21;;;;;;;1.00;0.70;;;4.10;99.90;;;;;;5094447;28;20545;-60
2021/12/21 12:50:52;;;;;;;1.50;0.63;;;4.40;99.90;;;;;;5094615;28;20503;-60
2021/12/21 12:53:23;;;;;;;4.23;0.80;;;4.40;99.90;;;;;;5094526;28;20851;-60
2021/12/21 12:55:58;;;;;;;3.50;0.80;;;4.20;99.90;;;;;;5093905;28;20460;-60
2021/12/21 12:58:28;;;;;;;1.50;0.90;;;4.00;99.90;;;;;;5093830;28;20555;-60
2021/12/21 13:00:57;;;;;;;0.90;0.60;;;4.10;99.90;;;;;;5094139;28;20941;-60
2021/12/21 13:03:33;;;;;;;1.10;0.63;;;4.20;99.90;;;;;;5093480;28;20521;-60
2021/12/21 13:06:01;;;;;;;0.83;0.60;;;4.30;99.90;;;;;;5090803;28;20507;-60
2021/12/21 13:08:33;;;;;;;1.27;0.70;;;4.40;99.90;;;;;;5091389;28;20880;-60
2021/12/21 13:11:04;;;;;;;2.10;0.80;;;4.60;99.90;;;;;;5091226;28;20591;-59
2021/12/21 13:13:34;;;;;;;1.90;0.70;;;4.70;99.90;;;;;;5090468;28;20526;-60
2021/12/21 13:16:06;;;;;;;4.27;0.60;;;4.70;99.90;;;;;;5090644;28;20489;-60
2021/12/21 13:18:38;;;;;;;0.90;0.60;;;4.40;99.90;;;;;;5091494;28;20437;-60
2021/12/21 13:21:23;;;;;;;2.60;0.70;;;4.60;99.90;;;;;;5093444;28;20488;-59
2021/12/21 13:23:51;;;;;;;1.00;0.60;;;4.70;99.90;;;;;;5090564;28;20825;-60
2021/12/21 13:26:32;;;;;;;3.17;0.80;;;4.70;99.90;;;;;;5073393;28;20496;-61
2021/12/21 13:29:14;;;;;;;1.43;0.70;;;4.80;99.90;;;;;;5092245;28;20471;-60
2021/12/21 13:31:47;;;;;;;2.10;0.97;;;4.70;99.90;;;;;;5092495;28;20449;-60
2021/12/21 13:34:16;;;;;;;3.20;0.90;;;4.80;99.90;;;;;;5091848;28;20452;-60
2021/12/21 13:36:53;;;;;;;9.00;0.80;;;4.80;99.90;;;;;;5093409;28;20203;-60
2021/12/21 13:42:20;;;;;;;1.77;0.60;;;5.00;99.90;;;;;;5089801;28;20926;-61
2021/12/21 13:44:59;;;;;;;1.23;0.60;;;5.20;99.90;;;;;;5091762;28;20727;-61
2021/12/21 13:47:31;;;;;;;1.03;0.80;;;4.90;99.90;;;;;;5091176;28;20429;-60
2021/12/21 13:50:06;;;;;;;1.00;0.60;;;4.70;99.90;;;;;;5092262;28;20446;-61
2021/12/21 13:52:36;;;;;;;1.17;0.53;;;4.70;99.90;;;;;;5091938;28;20441;-60